< < Back
Terminal Aerodrome Forecast


Current Version              Previous Versions:   1  2  3  4  5  6  7  8  9  

Terminal Aerodrome Forecast

245
FTUS42 KFFC 291100
TAFMCN
TAF
KMCN 291120Z 2912/3012 30005KT P6SM SKC
     FM291600 32009G18KT P6SM SCT050
     FM300000 34006KT P6SM SKC=

Latest METAR

988
SAUS80 KWBC 301100 RRA
MTRMCN
METAR KMCN 301053Z AUTO 28003KT 10SM CLR 15/15 A3001 RMK AO2 SLP158
T01500150 TSNO


USA.gov is the U.S. government's official web portal to all federal, state and local government web resources and services.